CheckWX is a tool to help pilots better visualize weather data.  It is not intended as a substitute for an official pre-flight weather briefing.

05:16:56 UTC

K2WX METAR
Buffalo Airport
Buffalo, South Dakota, USA
Current

21 mins ago

K2WX 200456Z AUTO 17005KT M16/M18 A2979 RMK AO1 SLP164 T11561183
Observed
Feb-20 @ 04:56 UTC
Wind
  • 170° at 5 KTS
Visibility
Temperature
-16°C / 3°F
Dewpoint
-18°C / -0°F
Humidity
85%
Altimeter
29.79" Hg
Pressure
1016.4 hPa
Previous

1 hour ago

K2WX 200356Z AUTO 17007KT M16/M19 A2982 RMK AO1 SLP174 T11611194
Observed
Feb-20 @ 03:56 UTC
Wind
  • 170° at 7 KTS
Visibility
Temperature
-16°C / 3°F
Dewpoint
-19°C / -2°F
Humidity
78%
Altimeter
29.82" Hg
Pressure
1017.4 hPa
Previous

2 hours ago

K2WX 200256Z AUTO 12005KT M17/M20 A2984 RMK AO1 SLP184 T11671200 58009
Observed
Feb-20 @ 02:56 UTC
Wind
  • 120° at 5 KTS
Visibility
Temperature
-17°C / 1°F
Dewpoint
-20°C / -4°F
Humidity
78%
Altimeter
29.84" Hg
Pressure
1018.4 hPa